Ryuhomaru — JD2639 — position and weather

sailwx.info

Track history (hours):
 
Tides and Currents Weather Stations Pressure Air Temp Water Temp Dewpoint Dewpoint Depression Visibility Wind Speed Wind Dir Waves Ship Positions

Ryuhomaru

Last reported at 2015-Aug-27 03:33 UTC. Time now 2015-Aug-28 00:21 UTC.
Position N 34°33' E 135°27'.

Length 42 m; draft 3.5 m.

Type: Tug. MMSI: 431000586.

Date/timePositionNaut miles runAvg speedWind from/ knotsBaromVisibWave heightAir tempDewpointWater temp
2015-Aug-27 03:33N 34°33' E 135°27'0 0.0
2015-Aug-27 02:33N 34°33' E 135°27'0 0.0
2015-Aug-27 01:33N 34°33' E 135°27'0 0.0
2015-Aug-27 00:28N 34°33' E 135°27'0 0.0
2015-Aug-26 23:33N 34°33' E 135°27'0 0.0
2015-Aug-26 22:33N 34°33' E 135°27'3 3.3
2015-Aug-26 21:33N 34°31' E 135°23'2 2.5
2015-Aug-26 20:33N 34°33' E 135°25'1 1.2
2015-Aug-26 19:27N 34°33' E 135°27'0 0.0
2015-Aug-26 05:33N 34°33' E 135°27'4 4.1
2015-Aug-26 04:29N 34°33' E 135°21'4 4.1
2015-Aug-26 03:33N 34°33' E 135°26'1 0.6
2015-Aug-26 02:33N 34°33' E 135°27'0 0.0
2015-Aug-26 01:32N 34°33' E 135°27'0 0.0
2015-Aug-26 00:33N 34°33' E 135°27'0 0.0
2015-Aug-25 23:33N 34°33' E 135°27'3 3.3
2015-Aug-25 22:32N 34°31' E 135°23'1 1.5
2015-Aug-25 21:33N 34°33' E 135°23'3 3.1
2015-Aug-25 20:33N 34°33' E 135°27'0 0.0
2015-Aug-25 19:33N 34°33' E 135°27'0 0.0
2015-Aug-25 08:30N 34°33' E 135°27'1 1.4
2015-Aug-25 07:30N 34°33' E 135°25'3 3.3
2015-Aug-25 06:33N 34°33' E 135°21'3 2.9
2015-Aug-25 05:33N 34°34' E 135°18'6 2.6
2015-Aug-25 03:19N 34°32' E 135°24'2 0.7
2015-Aug-25 00:33N 34°33' E 135°23'3 2.6
2015-Aug-24 23:33N 34°33' E 135°27'0 0.0
2015-Aug-24 05:32N 34°33' E 135°27'1 0.5
2015-Aug-24 04:29N 34°33' E 135°26'1 1.1
2015-Aug-24 03:28N 34°33' E 135°25'3 3.2
2015-Aug-24 02:30N 34°34' E 135°21'5 5.0
2015-Aug-24 01:33N 34°33' E 135°27'0 0.0
2015-Aug-24 00:33N 34°33' E 135°27'0 0.0
2015-Aug-23 23:33N 34°33' E 135°27'  
2015-Aug-21 04:28N 34°33' E 135°27'0 0.0
2015-Aug-21 03:31N 34°33' E 135°27'0 0.0
2015-Aug-21 02:33N 34°33' E 135°27'6 2.7
2015-Aug-21 00:25N 34°33' E 135°20'5 5.7
2015-Aug-20 23:33N 34°33' E 135°26'1 0.7
2015-Aug-20 22:34N 34°33' E 135°27'0 0.0
2015-Aug-20 08:03N 34°33' E 135°27'2 3.7
2015-Aug-20 07:33N 34°33' E 135°24'5 4.9
2015-Aug-20 06:31N 34°38' E 135°26'5 5.1
2015-Aug-20 05:32N 34°33' E 135°24'2 1.9
2015-Aug-20 04:33N 34°33' E 135°27'0 0.0
2015-Aug-20 03:33N 34°33' E 135°27'0 0.0
2015-Aug-20 02:31N 34°33' E 135°27'0 0.0
2015-Aug-20 01:31N 34°33' E 135°27'0 0.0
2015-Aug-20 00:33N 34°33' E 135°27'0 0.0
2015-Aug-19 23:33N 34°33' E 135°27'6 5.6
2015-Aug-19 22:33N 34°29' E 135°22'2 2.0
2015-Aug-19 21:32N 34°31' E 135°22'5 4.7
2015-Aug-19 20:33N 34°33' E 135°27'0 0.0
2015-Aug-19 06:33N 34°33' E 135°27'0 0.0
2015-Aug-19 05:33N 34°33' E 135°27'0 0.0
2015-Aug-19 04:33N 34°33' E 135°27'0 0.0
2015-Aug-19 03:33N 34°33' E 135°27'0 0.0
2015-Aug-17 11:33N 34°33' E 135°27'1313.3
2015-Aug-17 10:33N 34°27' E 135°12'12 7.8
2015-Aug-17 09:05N 34°21' E 135°00'814.7
2015-Aug-17 08:33N 34°26' E 135°07'1413.6
2015-Aug-17 07:33N 34°33' E 135°21'2 2.4
2015-Aug-17 06:33N 34°34' E 135°24'2 2.2
2015-Aug-17 05:33N 34°36' E 135°24'0 0.0
2015-Aug-17 04:32N 34°36' E 135°24'3 3.2
2015-Aug-17 03:34N 34°38' E 135°26'  
Track history (hours):
 
Tides and Currents Weather Stations Pressure Air Temp Water Temp Dewpoint Dewpoint Depression Visibility Wind Speed Wind Dir Waves Ship Positions

Ryuhomaru

Last reported at 2015-Aug-27 03:33 UTC. Time now 2015-Aug-28 00:21 UTC.
Position N 34°33' E 135°27'.

Length 42 m; draft 3.5 m.

Type: Tug. MMSI: 431000586.

Date/timePositionNaut miles runAvg speedWind from/ knotsBaromVisibWave heightAir tempDewpointWater temp
2015-Aug-27 03:33N 34°33' E 135°27'0 0.0
2015-Aug-27 02:33N 34°33' E 135°27'0 0.0
2015-Aug-27 01:33N 34°33' E 135°27'0 0.0
2015-Aug-27 00:28N 34°33' E 135°27'0 0.0
2015-Aug-26 23:33N 34°33' E 135°27'0 0.0
2015-Aug-26 22:33N 34°33' E 135°27'3 3.3
2015-Aug-26 21:33N 34°31' E 135°23'2 2.5
2015-Aug-26 20:33N 34°33' E 135°25'1 1.2
2015-Aug-26 19:27N 34°33' E 135°27'0 0.0
2015-Aug-26 05:33N 34°33' E 135°27'4 4.1
2015-Aug-26 04:29N 34°33' E 135°21'4 4.1
2015-Aug-26 03:33N 34°33' E 135°26'1 0.6
2015-Aug-26 02:33N 34°33' E 135°27'0 0.0
2015-Aug-26 01:32N 34°33' E 135°27'0 0.0
2015-Aug-26 00:33N 34°33' E 135°27'0 0.0
2015-Aug-25 23:33N 34°33' E 135°27'3 3.3
2015-Aug-25 22:32N 34°31' E 135°23'1 1.5
2015-Aug-25 21:33N 34°33' E 135°23'3 3.1
2015-Aug-25 20:33N 34°33' E 135°27'0 0.0
2015-Aug-25 19:33N 34°33' E 135°27'0 0.0
2015-Aug-25 08:30N 34°33' E 135°27'1 1.4
2015-Aug-25 07:30N 34°33' E 135°25'3 3.3
2015-Aug-25 06:33N 34°33' E 135°21'3 2.9
2015-Aug-25 05:33N 34°34' E 135°18'6 2.6
2015-Aug-25 03:19N 34°32' E 135°24'2 0.7
2015-Aug-25 00:33N 34°33' E 135°23'3 2.6
2015-Aug-24 23:33N 34°33' E 135°27'0 0.0
2015-Aug-24 05:32N 34°33' E 135°27'1 0.5
2015-Aug-24 04:29N 34°33' E 135°26'1 1.1
2015-Aug-24 03:28N 34°33' E 135°25'3 3.2
2015-Aug-24 02:30N 34°34' E 135°21'5 5.0
2015-Aug-24 01:33N 34°33' E 135°27'0 0.0
2015-Aug-24 00:33N 34°33' E 135°27'0 0.0
2015-Aug-23 23:33N 34°33' E 135°27'  
2015-Aug-21 04:28N 34°33' E 135°27'0 0.0
2015-Aug-21 03:31N 34°33' E 135°27'0 0.0
2015-Aug-21 02:33N 34°33' E 135°27'6 2.7
2015-Aug-21 00:25N 34°33' E 135°20'5 5.7
2015-Aug-20 23:33N 34°33' E 135°26'1 0.7
2015-Aug-20 22:34N 34°33' E 135°27'0 0.0
2015-Aug-20 08:03N 34°33' E 135°27'2 3.7
2015-Aug-20 07:33N 34°33' E 135°24'5 4.9
2015-Aug-20 06:31N 34°38' E 135°26'5 5.1
2015-Aug-20 05:32N 34°33' E 135°24'2 1.9
2015-Aug-20 04:33N 34°33' E 135°27'0 0.0
2015-Aug-20 03:33N 34°33' E 135°27'0 0.0
2015-Aug-20 02:31N 34°33' E 135°27'0 0.0
2015-Aug-20 01:31N 34°33' E 135°27'0 0.0
2015-Aug-20 00:33N 34°33' E 135°27'0 0.0
2015-Aug-19 23:33N 34°33' E 135°27'6 5.6
2015-Aug-19 22:33N 34°29' E 135°22'2 2.0
2015-Aug-19 21:32N 34°31' E 135°22'5 4.7
2015-Aug-19 20:33N 34°33' E 135°27'0 0.0
2015-Aug-19 06:33N 34°33' E 135°27'0 0.0
2015-Aug-19 05:33N 34°33' E 135°27'0 0.0
2015-Aug-19 04:33N 34°33' E 135°27'0 0.0
2015-Aug-19 03:33N 34°33' E 135°27'0 0.0
2015-Aug-17 11:33N 34°33' E 135°27'1313.3
2015-Aug-17 10:33N 34°27' E 135°12'12 7.8
2015-Aug-17 09:05N 34°21' E 135°00'814.7
2015-Aug-17 08:33N 34°26' E 135°07'1413.6
2015-Aug-17 07:33N 34°33' E 135°21'2 2.4
2015-Aug-17 06:33N 34°34' E 135°24'2 2.2
2015-Aug-17 05:33N 34°36' E 135°24'0 0.0
2015-Aug-17 04:32N 34°36' E 135°24'3 3.2
2015-Aug-17 03:34N 34°38' E 135°26'  

Dump ship's entire track history